createdAt,value
2022-12-28T00:01:23.199Z,2.90
2022-12-28T00:03:52.570Z,2.20
2022-12-28T00:06:23.909Z,2.50
2022-12-28T00:08:54.094Z,2.77
2022-12-28T00:11:30.400Z,2.93
2022-12-28T00:14:01.371Z,3.20
2022-12-28T00:16:31.049Z,2.47
2022-12-28T00:19:00.734Z,2.60
2022-12-28T00:21:31.093Z,3.03
2022-12-28T00:24:00.979Z,2.40
2022-12-28T00:26:31.301Z,2.93
2022-12-28T00:29:04.769Z,2.73
2022-12-28T00:31:34.608Z,3.33
2022-12-28T00:34:02.828Z,2.73
2022-12-28T00:37:08.570Z,3.20
2022-12-28T00:39:21.614Z,2.30
2022-12-28T00:41:49.766Z,2.50
2022-12-28T00:44:17.880Z,2.30
2022-12-28T00:46:45.991Z,2.13
2022-12-28T00:49:14.176Z,2.60
2022-12-28T00:51:43.618Z,2.73
2022-12-28T00:54:11.872Z,3.17
2022-12-28T00:56:42.882Z,2.47
2022-12-28T00:59:11.801Z,2.30
2022-12-28T01:01:40.073Z,3.43
2022-12-28T01:04:08.261Z,2.80
2022-12-28T01:06:36.426Z,3.77
2022-12-28T01:09:06.075Z,3.07
2022-12-28T01:11:34.524Z,2.60
2022-12-28T01:14:03.868Z,2.60
2022-12-28T01:16:34.693Z,2.63
2022-12-28T01:19:05.684Z,2.97
2022-12-28T01:21:35.123Z,2.90
2022-12-28T01:24:06.111Z,3.30
2022-12-28T01:26:34.289Z,2.43
2022-12-28T01:29:02.900Z,3.00
2022-12-28T01:31:31.062Z,2.63
2022-12-28T01:33:59.338Z,3.17
2022-12-28T01:36:28.991Z,3.03
2022-12-28T01:38:59.842Z,2.80
2022-12-28T01:41:30.578Z,2.70
2022-12-28T01:44:41.033Z,2.87
2022-12-28T01:47:13.127Z,3.17
2022-12-28T01:49:46.045Z,3.07
2022-12-28T01:52:18.127Z,2.70
2022-12-28T01:54:49.369Z,2.87
2022-12-28T01:57:20.333Z,2.67
2022-12-28T01:59:52.902Z,2.70
2022-12-28T02:02:22.424Z,2.87
2022-12-28T02:04:51.070Z,2.70
2022-12-28T02:07:29.106Z,2.90
2022-12-28T02:10:40.760Z,2.40
2022-12-28T02:12:47.409Z,2.47
2022-12-28T02:15:19.792Z,2.63
2022-12-28T02:17:51.360Z,5.30
2022-12-28T02:20:19.674Z,2.30
2022-12-28T02:23:19.309Z,2.73
2022-12-28T02:26:26.874Z,2.27
2022-12-28T02:29:32.388Z,2.40
2022-12-28T02:32:10.169Z,2.20
2022-12-28T02:34:46.113Z,2.50
2022-12-28T02:37:20.126Z,2.47
2022-12-28T02:39:53.027Z,3.27
2022-12-28T02:42:23.219Z,2.40
2022-12-28T02:45:10.193Z,2.30
2022-12-28T02:47:56.309Z,2.47
2022-12-28T02:50:30.977Z,2.67
2022-12-28T02:53:41.499Z,2.90
2022-12-28T02:56:23.176Z,3.03
2022-12-28T02:59:18.892Z,2.80
2022-12-28T03:07:43.906Z,3.13
2022-12-28T03:10:18.853Z,3.40
2022-12-28T03:12:51.335Z,3.33
2022-12-28T03:15:30.630Z,3.80
2022-12-28T03:18:21.563Z,3.53
2022-12-28T03:21:09.551Z,3.47
2022-12-28T03:23:59.364Z,3.67
2022-12-28T03:26:47.073Z,3.83
2022-12-28T03:29:35.408Z,3.97
2022-12-28T03:32:04.317Z,3.83
2022-12-28T03:34:33.089Z,3.80
2022-12-28T03:37:08.456Z,4.17
2022-12-28T03:39:43.463Z,3.83
2022-12-28T03:42:34.864Z,3.90
2022-12-28T03:45:10.932Z,3.93
2022-12-28T03:47:41.986Z,4.63
2022-12-28T03:50:10.833Z,4.20
2022-12-28T03:52:39.036Z,4.40
2022-12-28T03:55:09.131Z,3.93
2022-12-28T03:57:37.181Z,4.20
2022-12-28T04:00:06.725Z,4.70
2022-12-28T04:02:34.879Z,4.20
2022-12-28T04:05:03.021Z,4.37
2022-12-28T04:07:31.614Z,4.37
2022-12-28T04:09:59.702Z,4.90
2022-12-28T04:12:29.142Z,4.57
2022-12-28T04:14:57.214Z,4.87
2022-12-28T04:17:25.297Z,4.90
2022-12-28T04:19:53.385Z,4.07
2022-12-28T04:22:21.520Z,4.53
2022-12-28T04:24:49.636Z,4.63
2022-12-28T04:27:17.739Z,5.10
2022-12-28T04:29:47.177Z,4.33
2022-12-28T04:32:15.255Z,4.67
2022-12-28T04:34:48.377Z,4.70
2022-12-28T04:37:17.059Z,4.47
2022-12-28T04:39:54.688Z,4.47
2022-12-28T04:42:25.333Z,4.60
2022-12-28T04:44:54.782Z,4.33
2022-12-28T04:47:22.819Z,4.00
2022-12-28T04:49:51.123Z,4.20
2022-12-28T04:52:19.221Z,4.33
2022-12-28T04:54:47.289Z,4.30
2022-12-28T04:57:15.433Z,4.97
2022-12-28T04:59:43.514Z,5.07
2022-12-28T05:02:13.034Z,4.10
2022-12-28T05:04:41.208Z,4.50
2022-12-28T05:07:09.296Z,3.93
2022-12-28T05:09:37.431Z,4.90
2022-12-28T05:12:06.088Z,4.33
2022-12-28T05:14:37.200Z,5.30
2022-12-28T05:17:05.802Z,4.53
2022-12-28T05:19:35.326Z,4.30
2022-12-28T05:22:03.610Z,4.40
2022-12-28T05:24:31.841Z,4.73
2022-12-28T05:26:59.879Z,4.30
2022-12-28T05:29:27.922Z,4.63
2022-12-28T05:31:56.034Z,4.47
2022-12-28T05:34:24.164Z,4.50
2022-12-28T05:36:53.636Z,4.23
2022-12-28T05:39:21.699Z,3.80
2022-12-28T05:41:49.824Z,4.40
2022-12-28T05:44:17.922Z,4.03
2022-12-28T05:46:46.089Z,4.00
2022-12-28T05:49:14.224Z,3.73
2022-12-28T05:51:42.300Z,4.40
2022-12-28T05:54:11.816Z,3.70
2022-12-28T05:56:40.437Z,3.70
2022-12-28T05:59:09.024Z,3.77
2022-12-28T06:01:39.852Z,4.10
2022-12-28T06:04:10.197Z,4.10
2022-12-28T06:06:38.282Z,3.57
2022-12-28T06:09:06.554Z,3.20
2022-12-28T06:11:36.098Z,3.50
2022-12-28T06:14:05.997Z,4.13
2022-12-28T06:16:36.602Z,3.63
2022-12-28T06:19:09.256Z,3.67
2022-12-28T06:21:40.461Z,3.50
2022-12-28T06:24:10.263Z,2.97
2022-12-28T06:26:41.207Z,3.13
2022-12-28T06:29:10.306Z,3.20
2022-12-28T06:31:40.503Z,3.30
2022-12-28T06:34:10.252Z,3.70
2022-12-28T06:36:40.029Z,3.40
2022-12-28T06:39:10.730Z,3.20
2022-12-28T06:41:40.886Z,3.73
2022-12-28T06:44:10.172Z,3.30
2022-12-28T06:46:38.632Z,3.00
2022-12-28T06:49:06.903Z,2.90
2022-12-28T06:51:40.358Z,2.70
2022-12-28T06:54:09.405Z,2.80
2022-12-28T06:56:39.442Z,2.80
2022-12-28T06:59:08.194Z,2.80
2022-12-28T07:01:37.993Z,2.97
2022-12-28T07:04:07.846Z,2.43
2022-12-28T07:06:38.966Z,2.47
2022-12-28T07:09:08.626Z,2.43
2022-12-28T07:11:37.269Z,2.70
2022-12-28T07:14:09.768Z,2.53
2022-12-28T07:19:04.980Z,2.20
2022-12-28T07:21:35.846Z,2.30
2022-12-28T07:24:04.593Z,2.50
2022-12-28T07:26:34.108Z,2.30
2022-12-28T07:29:04.475Z,2.57
2022-12-28T07:31:41.756Z,3.00
2022-12-28T07:34:13.005Z,2.67
2022-12-28T07:36:41.186Z,2.80
2022-12-28T07:39:10.368Z,3.20
2022-12-28T07:41:38.961Z,2.90
2022-12-28T07:44:07.557Z,3.10
2022-12-28T07:46:38.531Z,2.63
2022-12-28T07:49:07.050Z,2.40
2022-12-28T07:51:37.060Z,2.93
2022-12-28T07:54:06.113Z,2.83
2022-12-28T07:59:03.431Z,2.70
2022-12-28T08:01:33.432Z,2.90
2022-12-28T08:04:05.005Z,2.83
2022-12-28T08:06:36.055Z,2.73
2022-12-28T08:09:04.924Z,3.00
2022-12-28T08:11:34.852Z,2.70
2022-12-28T08:14:03.970Z,2.63
2022-12-28T08:16:34.049Z,2.53
2022-12-28T08:19:03.949Z,2.90
2022-12-28T08:21:33.855Z,2.30
2022-12-28T08:24:02.709Z,2.37
2022-12-28T08:26:32.593Z,2.57
2022-12-28T08:29:02.968Z,2.80
2022-12-28T08:31:33.471Z,3.63
2022-12-28T08:34:05.229Z,2.37
2022-12-28T08:36:33.835Z,2.00
2022-12-28T08:39:02.615Z,2.60
2022-12-28T08:41:31.468Z,2.30
2022-12-28T08:43:59.975Z,3.13
2022-12-28T08:46:30.138Z,2.17
2022-12-28T08:48:59.701Z,2.60
2022-12-28T08:51:32.368Z,2.47
2022-12-28T08:54:01.130Z,2.43
2022-12-28T08:56:30.956Z,2.13
2022-12-28T08:59:00.357Z,2.60
2022-12-28T09:01:30.536Z,3.07
2022-12-28T09:04:01.031Z,2.43
2022-12-28T09:06:34.379Z,2.73
2022-12-28T09:09:06.806Z,2.40
2022-12-28T09:11:35.782Z,2.87
2022-12-28T09:14:04.772Z,2.73
2022-12-28T09:16:34.459Z,3.00
2022-12-28T09:19:04.804Z,3.20
2022-12-28T09:21:37.348Z,3.27
2022-12-28T09:24:06.293Z,3.60
2022-12-28T09:26:37.152Z,3.47
2022-12-28T09:29:07.374Z,3.43
2022-12-28T09:31:37.296Z,3.43
2022-12-28T09:36:55.647Z,3.57
2022-12-28T09:39:24.984Z,3.13
2022-12-28T09:41:56.461Z,4.00
2022-12-28T09:44:43.357Z,3.10
2022-12-28T09:47:19.451Z,3.37
2022-12-28T09:49:56.618Z,3.20
2022-12-28T09:52:30.807Z,3.00
2022-12-28T09:55:07.110Z,3.50
2022-12-28T09:57:40.001Z,3.30
2022-12-28T10:00:15.905Z,2.73
2022-12-28T10:02:49.096Z,3.37
2022-12-28T10:05:17.459Z,2.73
2022-12-28T10:07:47.008Z,3.00
2022-12-28T10:10:18.284Z,3.10
2022-12-28T10:12:47.088Z,3.90
2022-12-28T10:15:16.636Z,3.30
2022-12-28T10:17:45.855Z,2.73
2022-12-28T10:20:19.001Z,2.67
2022-12-28T10:22:53.174Z,2.40
2022-12-28T10:25:23.777Z,3.10
2022-12-28T10:27:52.194Z,2.70
2022-12-28T10:30:24.037Z,2.60
2022-12-28T10:32:59.717Z,2.67
2022-12-28T10:35:34.260Z,2.67
2022-12-28T10:38:07.516Z,2.83
2022-12-28T10:40:39.423Z,2.33
2022-12-28T10:43:11.017Z,2.17
2022-12-28T10:45:42.786Z,1.80
2022-12-28T10:48:16.881Z,2.13
2022-12-28T10:50:51.560Z,2.37
2022-12-28T10:53:27.177Z,2.73
2022-12-28T10:56:23.279Z,2.67
2022-12-28T10:58:52.875Z,1.90
2022-12-28T11:01:26.311Z,4.17
2022-12-28T11:04:07.287Z,3.87
2022-12-28T11:06:37.624Z,2.70
2022-12-28T11:09:16.188Z,2.27
2022-12-28T11:11:46.280Z,1.80
2022-12-28T11:14:21.633Z,1.93
2022-12-28T11:16:49.807Z,1.60
2022-12-28T11:19:18.692Z,1.50
2022-12-28T11:21:47.253Z,1.77
2022-12-28T11:24:18.740Z,1.50
2022-12-28T11:26:49.079Z,1.50
2022-12-28T11:29:19.850Z,1.90
2022-12-28T11:31:52.107Z,1.73
2022-12-28T11:34:26.092Z,1.63
2022-12-28T11:36:54.566Z,1.90
2022-12-28T11:39:43.896Z,1.73
2022-12-28T11:42:38.529Z,1.60
2022-12-28T11:45:01.458Z,2.00
2022-12-28T11:47:34.188Z,1.97
2022-12-28T11:50:39.628Z,1.70
2022-12-28T11:53:23.443Z,2.00
2022-12-28T11:56:08.896Z,2.00
2022-12-28T11:59:15.611Z,1.70
2022-12-28T12:02:00.712Z,1.83
2022-12-28T12:04:35.038Z,2.20
2022-12-28T12:07:32.042Z,2.00
2022-12-28T12:10:16.425Z,1.80
2022-12-28T12:12:54.060Z,1.90
2022-12-28T12:15:33.092Z,2.47
2022-12-28T12:18:04.261Z,1.67
2022-12-28T12:20:46.040Z,1.90
2022-12-28T12:23:27.356Z,1.83
2022-12-28T12:25:57.457Z,2.60
2022-12-28T12:28:36.455Z,1.97
2022-12-28T12:31:08.909Z,2.30
2022-12-28T12:33:41.333Z,2.10
2022-12-28T12:36:30.847Z,1.70
2022-12-28T12:39:30.072Z,2.20
2022-12-28T12:42:07.875Z,1.80
2022-12-28T12:44:41.572Z,2.90
2022-12-28T12:47:24.462Z,2.00
2022-12-28T12:50:15.812Z,3.03
2022-12-28T12:52:54.999Z,2.67
2022-12-28T12:55:34.955Z,3.70
2022-12-28T12:58:09.249Z,2.37
2022-12-28T13:00:50.892Z,2.40
2022-12-28T13:03:33.391Z,2.33
2022-12-28T13:06:01.745Z,2.00
2022-12-28T13:08:37.109Z,1.90
2022-12-28T13:11:09.040Z,2.00
2022-12-28T13:13:39.094Z,2.17
2022-12-28T13:16:13.514Z,2.13
2022-12-28T13:18:45.683Z,2.00
2022-12-28T13:21:21.339Z,1.60
2022-12-28T13:23:50.386Z,2.17
2022-12-28T13:26:27.946Z,2.03
2022-12-28T13:28:59.847Z,2.63
2022-12-28T13:31:35.283Z,2.50
2022-12-28T13:34:05.408Z,2.20
2022-12-28T13:36:33.902Z,1.87
2022-12-28T13:39:11.946Z,2.40
2022-12-28T13:41:46.316Z,2.30
2022-12-28T13:44:36.147Z,2.43
2022-12-28T13:47:12.338Z,2.23
2022-12-28T13:49:45.599Z,2.67
2022-12-28T13:52:19.842Z,2.20
2022-12-28T13:54:52.824Z,3.13
2022-12-28T14:00:12.703Z,1.83
2022-12-28T14:02:42.873Z,1.73
2022-12-28T14:05:18.609Z,1.93
2022-12-28T14:07:48.226Z,1.90
2022-12-28T14:10:16.755Z,1.70
2022-12-28T14:12:46.245Z,1.90
2022-12-28T14:15:16.371Z,2.43
2022-12-28T14:17:48.186Z,2.10
2022-12-28T14:20:16.354Z,1.93
2022-12-28T14:22:44.503Z,2.10
2022-12-28T14:25:15.554Z,1.77
2022-12-28T14:27:47.555Z,2.40
2022-12-28T14:30:24.552Z,2.20
2022-12-28T14:32:54.995Z,2.20
2022-12-28T14:35:26.482Z,2.03
2022-12-28T14:37:56.541Z,2.03
2022-12-28T14:40:30.058Z,1.60
2022-12-28T14:42:58.743Z,2.03
2022-12-28T14:46:06.657Z,1.80
2022-12-28T14:48:37.137Z,1.20
2022-12-28T14:51:07.552Z,2.20
2022-12-28T14:53:35.852Z,1.77
2022-12-28T14:56:08.120Z,1.87
2022-12-28T14:58:50.495Z,1.80
2022-12-28T15:01:20.972Z,2.20
2022-12-28T15:03:52.912Z,1.83
2022-12-28T15:06:21.429Z,1.30
2022-12-28T15:08:50.739Z,1.70
2022-12-28T15:11:19.817Z,1.73
2022-12-28T15:13:48.313Z,2.00
2022-12-28T15:16:18.083Z,2.03
2022-12-28T15:18:46.878Z,1.83
2022-12-28T15:21:18.505Z,1.53
2022-12-28T15:23:50.274Z,1.43
2022-12-28T15:26:18.529Z,1.30
2022-12-28T15:28:46.920Z,1.63
2022-12-28T15:31:17.799Z,2.00
2022-12-28T15:33:46.591Z,2.40
2022-12-28T15:36:18.835Z,1.47
2022-12-28T15:38:47.562Z,1.77
2022-12-28T15:41:33.761Z,2.27
2022-12-28T15:44:01.879Z,1.90
2022-12-28T15:46:30.001Z,1.60
2022-12-28T15:48:59.301Z,2.00
2022-12-28T15:51:28.881Z,1.20
2022-12-28T15:53:56.969Z,1.90
2022-12-28T15:56:27.158Z,1.77
2022-12-28T15:58:56.769Z,1.53
2022-12-28T16:01:26.917Z,1.53
2022-12-28T16:03:57.395Z,1.80
2022-12-28T16:06:29.094Z,1.67
2022-12-28T16:08:58.500Z,2.00
2022-12-28T16:11:29.442Z,2.20
2022-12-28T16:13:59.459Z,1.93
2022-12-28T16:16:29.531Z,1.83
2022-12-28T16:18:58.709Z,1.33
2022-12-28T16:21:29.382Z,1.90
2022-12-28T16:23:59.804Z,2.03
2022-12-28T16:26:28.769Z,2.03
2022-12-28T16:28:57.837Z,1.83
2022-12-28T16:31:27.555Z,2.10
2022-12-28T16:33:57.756Z,2.27
2022-12-28T16:36:26.509Z,1.83
2022-12-28T16:38:56.599Z,1.97
2022-12-28T16:41:26.396Z,1.97
2022-12-28T16:44:02.814Z,2.17
2022-12-28T16:46:30.968Z,2.10
2022-12-28T16:49:01.100Z,2.07
2022-12-28T16:51:29.269Z,2.10
2022-12-28T16:53:59.034Z,3.70
2022-12-28T16:56:27.227Z,2.97
2022-12-28T16:58:57.323Z,2.67
2022-12-28T17:01:26.906Z,2.10
2022-12-28T17:04:00.068Z,2.33
2022-12-28T17:06:31.799Z,2.00
2022-12-28T17:09:03.293Z,2.17
2022-12-28T17:11:31.432Z,2.17
2022-12-28T17:14:03.214Z,2.93
2022-12-28T17:16:31.479Z,2.97
2022-12-28T17:19:00.535Z,2.67
2022-12-28T17:21:29.255Z,3.07
2022-12-28T17:23:57.878Z,2.73
2022-12-28T17:26:27.613Z,2.40
2022-12-28T17:28:55.732Z,2.47
2022-12-28T17:31:24.928Z,2.53
2022-12-28T17:33:54.891Z,2.27
2022-12-28T17:36:23.446Z,2.30
2022-12-28T17:38:52.010Z,2.57
2022-12-28T17:41:22.036Z,2.60
2022-12-28T17:43:52.991Z,2.80
2022-12-28T17:46:22.133Z,3.00
2022-12-28T17:48:52.454Z,2.90
2022-12-28T17:51:25.673Z,2.80
2022-12-28T17:53:56.279Z,2.83
2022-12-28T17:56:26.734Z,2.57
2022-12-28T17:58:58.148Z,2.53
2022-12-28T18:01:28.099Z,2.80
2022-12-28T18:03:57.170Z,2.40
2022-12-28T18:06:25.664Z,2.90
2022-12-28T18:08:53.832Z,2.90
2022-12-28T18:11:22.159Z,2.57
2022-12-28T18:13:50.680Z,2.70
2022-12-28T18:16:21.384Z,2.83
2022-12-28T18:18:49.846Z,2.80
2022-12-28T18:21:22.037Z,2.30
2022-12-28T18:23:52.301Z,2.13
2022-12-28T18:26:22.575Z,1.80
2022-12-28T18:28:51.125Z,1.83
2022-12-28T18:31:21.092Z,1.93
2022-12-28T18:33:49.774Z,1.70
2022-12-28T18:36:18.733Z,2.33
2022-12-28T18:38:48.194Z,1.90
2022-12-28T18:41:20.912Z,1.77
2022-12-28T18:43:51.024Z,1.57
2022-12-28T18:46:20.887Z,1.93
2022-12-28T18:48:49.009Z,1.50
2022-12-28T18:51:19.207Z,1.67
2022-12-28T18:53:48.487Z,1.87
2022-12-28T18:56:19.528Z,2.10
2022-12-28T18:58:52.989Z,1.80
2022-12-28T19:02:05.910Z,1.87
2022-12-28T19:04:13.627Z,2.03
2022-12-28T19:06:42.896Z,1.93
2022-12-28T19:09:12.081Z,1.90
2022-12-28T19:11:41.184Z,2.10
2022-12-28T19:14:12.383Z,2.50
2022-12-28T19:16:42.527Z,2.40
2022-12-28T19:19:11.332Z,2.50
2022-12-28T19:21:41.018Z,2.20
2022-12-28T19:24:13.767Z,2.20
2022-12-28T19:26:42.018Z,2.70
2022-12-28T19:29:12.097Z,2.40
2022-12-28T19:31:41.629Z,2.97
2022-12-28T19:34:09.890Z,4.33
2022-12-28T19:36:38.199Z,3.30
2022-12-28T19:39:06.814Z,2.77
2022-12-28T19:41:35.676Z,3.30
2022-12-28T19:44:04.003Z,2.40
2022-12-28T19:46:32.633Z,2.30
2022-12-28T19:49:04.924Z,2.57
2022-12-28T19:51:33.882Z,2.47
2022-12-28T19:54:02.541Z,2.70
2022-12-28T19:56:31.225Z,2.57
2022-12-28T19:59:06.582Z,2.90
2022-12-28T20:01:36.972Z,2.77
2022-12-28T20:04:13.390Z,2.50
2022-12-28T20:06:43.843Z,2.50
2022-12-28T20:09:13.364Z,3.30
2022-12-28T20:11:41.912Z,2.70
2022-12-28T20:14:13.683Z,2.50
2022-12-28T20:16:42.433Z,2.60
2022-12-28T20:19:14.034Z,2.97
2022-12-28T20:21:42.737Z,2.60
2022-12-28T20:24:13.490Z,2.93
2022-12-28T20:26:41.708Z,3.30
2022-12-28T20:29:10.067Z,2.73
2022-12-28T20:31:38.400Z,2.83
2022-12-28T20:34:06.652Z,2.93
2022-12-28T20:36:36.789Z,2.90
2022-12-28T20:39:05.607Z,3.37
2022-12-28T20:42:06.370Z,3.30
2022-12-28T20:44:34.637Z,2.80
2022-12-28T20:47:03.616Z,3.10
2022-12-28T20:49:32.501Z,2.60
2022-12-28T20:52:02.199Z,2.43
2022-12-28T20:54:30.401Z,2.53
2022-12-28T20:56:58.518Z,3.07
2022-12-28T20:59:26.998Z,2.93
2022-12-28T21:01:55.338Z,3.33
2022-12-28T21:04:27.401Z,2.97
2022-12-28T21:06:55.807Z,3.07
2022-12-28T21:09:25.376Z,3.73
2022-12-28T21:11:53.528Z,2.87
2022-12-28T21:14:21.845Z,3.83
2022-12-28T21:16:50.034Z,2.70
2022-12-28T21:19:18.335Z,3.00
2022-12-28T21:21:48.400Z,2.60
2022-12-28T21:24:16.588Z,3.00
2022-12-28T21:26:46.018Z,2.77
2022-12-28T21:29:14.049Z,2.47
2022-12-28T21:31:42.149Z,2.87
2022-12-28T21:34:10.422Z,2.30
2022-12-28T21:36:38.662Z,2.50
2022-12-28T21:39:06.716Z,2.70
2022-12-28T21:41:49.656Z,2.57
2022-12-28T21:44:20.641Z,2.60
2022-12-28T21:46:50.898Z,2.53
2022-12-28T21:49:19.729Z,2.90
2022-12-28T21:51:47.948Z,2.57
2022-12-28T21:54:18.011Z,2.60
2022-12-28T21:56:48.051Z,2.47
2022-12-28T21:59:16.288Z,3.00
2022-12-28T22:02:03.340Z,2.17
2022-12-28T22:04:48.962Z,2.57
2022-12-28T22:07:19.142Z,3.07
2022-12-28T22:10:05.167Z,2.97
2022-12-28T22:12:36.899Z,2.43
2022-12-28T22:15:26.384Z,2.13
2022-12-28T22:17:58.942Z,2.30
2022-12-28T22:20:28.213Z,3.00
2022-12-28T22:22:57.561Z,2.30
2022-12-28T22:25:49.987Z,2.43
2022-12-28T22:35:57.873Z,2.73
2022-12-28T22:38:25.983Z,2.83
2022-12-28T22:40:58.722Z,3.30
2022-12-28T22:43:27.193Z,3.57
2022-12-28T22:46:02.181Z,3.00
2022-12-28T22:48:30.925Z,4.20
2022-12-28T22:51:04.326Z,2.80
2022-12-28T22:53:32.852Z,3.93
2022-12-28T22:56:04.013Z,3.07
2022-12-28T22:58:32.323Z,2.43
2022-12-28T23:01:08.233Z,2.40
2022-12-28T23:03:37.855Z,2.50
2022-12-28T23:06:08.083Z,2.20
2022-12-28T23:08:36.504Z,2.33
2022-12-28T23:11:06.050Z,2.47
2022-12-28T23:13:34.576Z,2.20
2022-12-28T23:16:03.881Z,2.00
2022-12-28T23:18:49.753Z,2.23
2022-12-28T23:21:38.557Z,2.47
2022-12-28T23:24:28.753Z,2.67
2022-12-28T23:27:10.714Z,1.90
2022-12-28T23:29:38.838Z,2.37
2022-12-28T23:32:06.911Z,2.17
2022-12-28T23:34:34.981Z,2.27
2022-12-28T23:37:04.747Z,2.07
2022-12-28T23:39:32.819Z,2.13
2022-12-28T23:42:00.905Z,2.00
2022-12-28T23:44:29.005Z,2.23
2022-12-28T23:46:59.523Z,2.13
2022-12-28T23:49:28.044Z,2.40
2022-12-28T23:51:56.145Z,2.13
2022-12-28T23:54:25.607Z,2.50
2022-12-28T23:56:53.679Z,2.70
2022-12-28T23:59:21.870Z,2.97
